Cicero, Indiana
Current Conditions -  °F | °C
As of 12:15 AM on Monday 20 Oct 2014 (Local Time) from KTYQ Reporting Station
Clear Clear  
Wind Chill: 43°   Ceiling: Unl
Heat Index: 46°   Visibility: 10mi
Dew Point: 40°   Wind: 7mph
Humidity: 79%   Direction: 210°SSW
Pressure: 30.03"   Gusts: NA
Location:  40.12°N, 86.01°W
Report Text: KTYQ 200415Z AUTO 21006KT 10SM CLR 08/05 A3003 RMK AO2 T00800045
Loading
Personal Weather Stations






























Interactive Weather Map
Tropical Storm Tracking
New forecast layout! Learn more

10-Day Weather Forecast

Advertisements
Track Severe Weather on mobile